createdAt,value
2019-05-21T00:00:01.555Z,14.50
2019-05-21T00:01:08.197Z,14.50
2019-05-21T00:02:14.193Z,14.50
2019-05-21T00:03:20.449Z,14.60
2019-05-21T00:04:28.542Z,14.60
2019-05-21T00:05:33.063Z,14.50
2019-05-21T00:06:38.829Z,14.60
2019-05-21T00:07:43.991Z,14.60
2019-05-21T00:08:49.711Z,14.60
2019-05-21T00:09:54.963Z,14.60
2019-05-21T00:11:00.839Z,14.60
2019-05-21T00:12:06.085Z,14.50
2019-05-21T00:13:11.883Z,14.50
2019-05-21T00:14:17.152Z,14.50
2019-05-21T00:15:22.973Z,14.60
2019-05-21T00:16:28.214Z,14.50
2019-05-21T00:17:34.041Z,14.50
2019-05-21T00:18:39.297Z,14.50
2019-05-21T00:19:45.022Z,14.50
2019-05-21T00:20:50.161Z,14.50
2019-05-21T00:21:56.209Z,14.50
2019-05-21T00:23:01.582Z,14.50
2019-05-21T00:24:07.425Z,14.50
2019-05-21T00:25:16.772Z,14.50
2019-05-21T00:26:20.545Z,14.50
2019-05-21T00:27:25.825Z,14.50
2019-05-21T00:28:39.909Z,14.50
2019-05-21T00:30:21.258Z,14.50
2019-05-21T00:32:02.247Z,14.50
2019-05-21T00:33:43.628Z,14.50
2019-05-21T00:35:26.461Z,14.40
2019-05-21T00:37:09.237Z,14.40
2019-05-21T00:38:52.079Z,14.30
2019-05-21T00:40:33.868Z,14.30
2019-05-21T00:42:03.698Z,14.30
2019-05-21T00:43:09.824Z,14.30
2019-05-21T00:44:15.567Z,14.30
2019-05-21T00:45:20.871Z,14.30
2019-05-21T00:46:26.606Z,14.30
2019-05-21T00:47:31.844Z,14.30
2019-05-21T00:48:37.610Z,14.30
2019-05-21T00:49:42.883Z,14.20
2019-05-21T00:50:48.770Z,14.30
2019-05-21T00:52:06.472Z,14.20
2019-05-21T00:53:01.653Z,14.20
2019-05-21T00:54:06.872Z,14.20
2019-05-21T00:55:12.822Z,14.20
2019-05-21T00:56:18.108Z,14.20
2019-05-21T00:57:23.867Z,14.20
2019-05-21T00:58:28.972Z,14.20
2019-05-21T00:59:34.707Z,14.20
2019-05-21T01:00:39.988Z,14.30
2019-05-21T01:01:45.883Z,14.20
2019-05-21T01:02:51.023Z,14.20
2019-05-21T01:03:56.784Z,14.30
2019-05-21T01:05:01.949Z,14.30
2019-05-21T01:06:08.746Z,14.30
2019-05-21T01:07:14.988Z,14.20
2019-05-21T01:08:20.663Z,14.20
2019-05-21T01:09:25.925Z,14.20
2019-05-21T01:10:31.750Z,14.20
2019-05-21T01:11:36.943Z,14.20
2019-05-21T01:12:42.635Z,14.20
2019-05-21T01:13:47.820Z,14.20
2019-05-21T01:14:53.598Z,14.20
2019-05-21T01:15:58.835Z,14.20
2019-05-21T01:17:04.626Z,14.20
2019-05-21T01:18:09.984Z,14.20
2019-05-21T01:19:15.790Z,14.20
2019-05-21T01:20:20.966Z,14.20
2019-05-21T01:21:26.673Z,14.20
2019-05-21T01:22:31.899Z,14.20
2019-05-21T01:23:37.679Z,14.20
2019-05-21T01:24:42.933Z,14.20
2019-05-21T01:25:48.753Z,14.20
2019-05-21T01:26:54.008Z,14.20
2019-05-21T01:27:59.838Z,14.20
2019-05-21T01:29:05.270Z,14.20
2019-05-21T01:30:11.116Z,14.20
2019-05-21T01:31:16.322Z,14.30
2019-05-21T01:32:22.021Z,14.20
2019-05-21T01:33:27.271Z,14.20
2019-05-21T01:34:33.422Z,14.20
2019-05-21T01:35:38.958Z,14.30
2019-05-21T01:36:44.836Z,14.20
2019-05-21T01:37:50.122Z,14.20
2019-05-21T01:38:55.971Z,14.20
2019-05-21T01:40:01.115Z,14.20
2019-05-21T01:41:06.931Z,14.20
2019-05-21T01:42:12.164Z,14.20
2019-05-21T01:43:17.993Z,14.20
2019-05-21T01:44:23.223Z,14.20
2019-05-21T01:45:28.983Z,14.20
2019-05-21T01:46:34.235Z,14.20
2019-05-21T01:47:40.004Z,14.30
2019-05-21T01:48:45.212Z,14.20
2019-05-21T01:49:51.005Z,14.20
2019-05-21T01:50:56.311Z,14.20
2019-05-21T01:52:02.221Z,14.20
2019-05-21T01:53:07.423Z,14.20
2019-05-21T01:54:13.202Z,14.20
2019-05-21T01:55:18.453Z,14.20
2019-05-21T01:56:24.192Z,14.20
2019-05-21T01:57:29.321Z,14.30
2019-05-21T01:58:35.140Z,14.20
2019-05-21T01:59:40.440Z,14.20
2019-05-21T02:00:46.186Z,14.20
2019-05-21T02:01:51.398Z,14.20
2019-05-21T02:02:57.099Z,14.30
2019-05-21T02:04:02.287Z,14.20
2019-05-21T02:05:08.149Z,14.20
2019-05-21T02:06:13.357Z,14.20
2019-05-21T02:07:19.121Z,14.20
2019-05-21T02:08:24.375Z,14.20
2019-05-21T02:09:30.251Z,14.20
2019-05-21T02:10:35.507Z,14.20
2019-05-21T02:11:41.338Z,14.20
2019-05-21T02:12:46.665Z,14.20
2019-05-21T02:13:52.410Z,14.30
2019-05-21T02:14:57.602Z,14.20
2019-05-21T02:16:03.263Z,14.20
2019-05-21T02:17:08.464Z,14.20
2019-05-21T02:18:14.143Z,14.20
2019-05-21T02:19:19.354Z,14.20
2019-05-21T02:20:25.179Z,14.20
2019-05-21T02:21:30.257Z,14.20
2019-05-21T02:22:35.989Z,14.20
2019-05-21T02:23:41.288Z,14.20
2019-05-21T02:24:47.142Z,14.20
2019-05-21T02:25:52.415Z,14.20
2019-05-21T02:26:58.223Z,14.20
2019-05-21T02:28:03.409Z,14.20
2019-05-21T02:29:09.218Z,14.20
2019-05-21T02:30:15.026Z,14.20
2019-05-21T02:31:20.772Z,14.20
2019-05-21T02:32:26.017Z,14.20
2019-05-21T02:33:31.759Z,14.20
2019-05-21T02:34:37.067Z,14.20
2019-05-21T02:35:53.683Z,14.20
2019-05-21T02:36:49.712Z,14.20
2019-05-21T02:37:55.564Z,14.20
2019-05-21T02:39:00.770Z,14.20
2019-05-21T02:40:08.855Z,14.20
2019-05-21T02:41:14.198Z,14.20
2019-05-21T02:42:20.014Z,14.10
2019-05-21T02:43:25.274Z,14.10
2019-05-21T02:44:31.118Z,14.20
2019-05-21T02:45:36.382Z,14.10
2019-05-21T02:46:42.121Z,14.10
2019-05-21T02:47:47.482Z,14.10
2019-05-21T02:48:53.297Z,14.10
2019-05-21T02:49:58.464Z,14.10
2019-05-21T02:51:04.180Z,14.10
2019-05-21T02:52:09.362Z,14.10
2019-05-21T02:53:15.141Z,14.10
2019-05-21T02:54:37.520Z,14.10
2019-05-21T02:55:27.758Z,14.10
2019-05-21T02:56:32.984Z,14.10
2019-05-21T02:57:40.467Z,14.10
2019-05-21T02:58:45.731Z,14.10
2019-05-21T02:59:53.290Z,14.10
2019-05-21T03:01:26.483Z,14.10
2019-05-21T03:02:38.058Z,14.10
2019-05-21T03:03:43.993Z,14.10
2019-05-21T03:04:49.126Z,14.10
2019-05-21T03:06:12.230Z,14.10
2019-05-21T03:07:20.007Z,14.10
2019-05-21T03:08:25.685Z,14.10
2019-05-21T03:09:30.836Z,14.10
2019-05-21T03:10:36.653Z,14.10
2019-05-21T03:11:41.855Z,14.10
2019-05-21T03:12:47.661Z,14.00
2019-05-21T03:13:53.079Z,14.10
2019-05-21T03:14:58.787Z,14.00
2019-05-21T03:16:04.142Z,14.00
2019-05-21T03:17:09.956Z,14.00
2019-05-21T03:18:15.262Z,14.00
2019-05-21T03:19:21.108Z,14.00
2019-05-21T03:20:26.413Z,14.00
2019-05-21T03:21:32.344Z,14.00
2019-05-21T03:22:37.564Z,14.00
2019-05-21T03:23:43.352Z,14.00
2019-05-21T03:24:48.714Z,14.00
2019-05-21T03:25:54.547Z,14.00
2019-05-21T03:26:59.752Z,14.00
2019-05-21T03:28:05.549Z,14.00
2019-05-21T03:29:10.913Z,13.90
2019-05-21T03:30:17.623Z,13.90
2019-05-21T03:31:22.898Z,13.90
2019-05-21T03:32:28.733Z,13.90
2019-05-21T03:33:34.031Z,13.90
2019-05-21T03:34:39.877Z,13.90
2019-05-21T03:35:45.112Z,13.90
2019-05-21T03:36:51.024Z,13.90
2019-05-21T03:37:56.252Z,13.90
2019-05-21T03:39:02.064Z,13.90
2019-05-21T03:40:09.226Z,13.90
2019-05-21T03:41:15.006Z,13.90
2019-05-21T03:42:20.315Z,13.90
2019-05-21T03:43:26.176Z,13.90
2019-05-21T03:44:31.427Z,13.90
2019-05-21T03:45:37.238Z,13.90
2019-05-21T03:46:42.453Z,13.80
2019-05-21T03:47:48.353Z,13.80
2019-05-21T03:48:53.524Z,13.80
2019-05-21T03:49:59.303Z,13.80
2019-05-21T03:51:04.539Z,13.90
2019-05-21T03:52:11.038Z,13.80
2019-05-21T03:53:16.347Z,13.80
2019-05-21T03:54:22.120Z,13.80
2019-05-21T03:55:27.335Z,13.80
2019-05-21T03:56:33.076Z,13.80
2019-05-21T03:57:38.359Z,13.80
2019-05-21T03:58:44.173Z,13.80
2019-05-21T03:59:49.464Z,13.70
2019-05-21T04:00:55.277Z,13.80
2019-05-21T04:02:00.487Z,13.80
2019-05-21T04:03:07.304Z,13.80
2019-05-21T04:04:12.501Z,13.80
2019-05-21T04:05:26.097Z,13.80
2019-05-21T04:06:31.384Z,13.80
2019-05-21T04:07:37.221Z,13.80
2019-05-21T04:08:42.470Z,13.80
2019-05-21T04:09:59.963Z,13.80
2019-05-21T04:11:05.155Z,13.80
2019-05-21T04:12:11.068Z,13.70
2019-05-21T04:13:16.372Z,13.70
2019-05-21T04:14:39.148Z,13.70
2019-05-21T04:15:53.831Z,13.70
2019-05-21T04:17:04.880Z,13.80
2019-05-21T04:18:23.530Z,13.80
2019-05-21T04:19:33.216Z,13.80
2019-05-21T04:20:38.339Z,13.80
2019-05-21T04:21:44.121Z,13.80
2019-05-21T04:22:55.417Z,13.80
2019-05-21T04:24:01.215Z,13.80
2019-05-21T04:25:06.665Z,13.80
2019-05-21T04:26:12.488Z,13.80
2019-05-21T04:27:21.741Z,13.80
2019-05-21T04:28:27.457Z,13.80
2019-05-21T04:29:32.617Z,13.70
2019-05-21T04:30:38.314Z,13.70
2019-05-21T04:31:43.553Z,13.70
2019-05-21T04:32:49.585Z,13.70
2019-05-21T04:33:54.766Z,13.70
2019-05-21T04:35:00.469Z,13.70
2019-05-21T04:36:05.506Z,13.70
2019-05-21T04:37:12.126Z,13.70
2019-05-21T04:38:17.789Z,13.70
2019-05-21T04:39:23.527Z,13.80
2019-05-21T04:40:28.875Z,13.70
2019-05-21T04:41:34.770Z,13.80
2019-05-21T04:42:40.023Z,13.80
2019-05-21T04:43:45.796Z,13.80
2019-05-21T04:44:51.417Z,13.80
2019-05-21T04:45:57.154Z,13.80
2019-05-21T04:47:02.313Z,13.80
2019-05-21T04:48:08.244Z,13.80
2019-05-21T04:49:13.454Z,13.80
2019-05-21T04:50:19.383Z,13.80
2019-05-21T04:51:24.561Z,13.80
2019-05-21T04:52:30.336Z,13.80
2019-05-21T04:53:35.576Z,13.80
2019-05-21T04:54:41.375Z,13.80
2019-05-21T04:55:46.602Z,13.80
2019-05-21T04:56:52.441Z,13.80
2019-05-21T04:57:57.706Z,13.80
2019-05-21T04:59:03.533Z,13.70
2019-05-21T05:00:09.001Z,13.80
2019-05-21T05:01:14.825Z,13.80
2019-05-21T05:02:19.980Z,13.70
2019-05-21T05:03:25.721Z,13.70
2019-05-21T05:04:30.974Z,13.70
2019-05-21T05:05:36.744Z,13.70
2019-05-21T05:06:41.971Z,13.80
2019-05-21T05:07:47.614Z,13.70
2019-05-21T05:08:54.580Z,13.80
2019-05-21T05:10:01.421Z,13.80
2019-05-21T05:11:06.488Z,13.80
2019-05-21T05:12:12.115Z,13.80
2019-05-21T05:13:17.328Z,13.80
2019-05-21T05:14:23.166Z,13.80
2019-05-21T05:15:28.391Z,13.80
2019-05-21T05:16:34.120Z,13.80
2019-05-21T05:17:39.406Z,13.80
2019-05-21T05:18:45.189Z,13.80
2019-05-21T05:19:50.368Z,13.80
2019-05-21T05:20:56.129Z,13.80
2019-05-21T05:22:01.403Z,13.80
2019-05-21T05:23:07.126Z,13.80
2019-05-21T05:24:12.296Z,13.80
2019-05-21T05:25:18.221Z,13.80
2019-05-21T05:26:23.415Z,13.80
2019-05-21T05:27:29.261Z,13.80
2019-05-21T05:28:34.556Z,13.80
2019-05-21T05:29:40.255Z,13.90
2019-05-21T05:30:45.395Z,13.90
2019-05-21T05:31:51.343Z,13.90
2019-05-21T05:32:56.873Z,13.90
2019-05-21T05:34:02.617Z,13.90
2019-05-21T05:35:10.681Z,13.80
2019-05-21T05:36:16.571Z,13.80
2019-05-21T05:37:21.807Z,13.80
2019-05-21T05:38:28.620Z,13.80
2019-05-21T05:39:33.806Z,13.80
2019-05-21T05:40:39.614Z,13.80
2019-05-21T05:41:44.937Z,13.80
2019-05-21T05:42:50.722Z,13.80
2019-05-21T05:43:56.045Z,13.70
2019-05-21T05:45:01.901Z,13.80
2019-05-21T05:46:07.376Z,13.80
2019-05-21T05:47:13.109Z,13.80
2019-05-21T05:48:18.696Z,13.70
2019-05-21T05:49:37.814Z,13.80
2019-05-21T05:50:44.599Z,13.80
2019-05-21T05:51:50.289Z,13.80
2019-05-21T05:52:55.593Z,13.80
2019-05-21T05:54:07.537Z,13.80
2019-05-21T05:55:11.480Z,13.80
2019-05-21T05:56:17.285Z,13.80
2019-05-21T05:57:22.658Z,13.80
2019-05-21T05:58:28.531Z,13.80
2019-05-21T05:59:36.204Z,13.80
2019-05-21T06:00:41.925Z,13.80
2019-05-21T06:01:47.203Z,13.80
2019-05-21T06:02:52.940Z,13.80
2019-05-21T06:03:58.190Z,13.80
2019-05-21T06:05:04.302Z,13.80
2019-05-21T06:06:09.531Z,13.80
2019-05-21T06:07:15.364Z,13.80
2019-05-21T06:08:20.534Z,13.80
2019-05-21T06:09:27.659Z,13.80
2019-05-21T06:10:32.933Z,13.80
2019-05-21T06:11:38.644Z,13.80
2019-05-21T06:12:43.910Z,13.80
2019-05-21T06:13:49.710Z,13.80
2019-05-21T06:14:54.871Z,13.80
2019-05-21T06:16:00.628Z,13.80
2019-05-21T06:17:06.935Z,13.80
2019-05-21T06:18:12.730Z,13.80
2019-05-21T06:19:17.895Z,13.80
2019-05-21T06:20:24.041Z,13.80
2019-05-21T06:21:29.382Z,13.80
2019-05-21T06:22:35.232Z,13.80
2019-05-21T06:23:40.574Z,13.80
2019-05-21T06:24:46.445Z,13.80
2019-05-21T06:25:51.620Z,13.80
2019-05-21T06:26:57.359Z,13.80
2019-05-21T06:28:02.593Z,13.80
2019-05-21T06:29:08.372Z,13.90
2019-05-21T06:30:14.206Z,13.90
2019-05-21T06:31:19.908Z,13.90
2019-05-21T06:32:27.907Z,13.90
2019-05-21T06:33:33.677Z,13.90
2019-05-21T06:34:38.899Z,13.90
2019-05-21T06:35:44.626Z,13.90
2019-05-21T06:36:49.818Z,13.90
2019-05-21T06:37:55.560Z,14.00
2019-05-21T06:39:00.739Z,14.00
2019-05-21T06:40:08.858Z,14.00
2019-05-21T06:41:14.611Z,14.00
2019-05-21T06:42:20.349Z,14.00
2019-05-21T06:43:25.623Z,14.10
2019-05-21T06:44:31.347Z,14.10
2019-05-21T06:45:36.620Z,14.10
2019-05-21T06:46:42.332Z,14.10
2019-05-21T06:47:47.480Z,14.10
2019-05-21T06:48:53.290Z,14.10
2019-05-21T06:49:58.613Z,14.10
2019-05-21T06:51:04.479Z,14.10
2019-05-21T06:52:09.799Z,14.10
2019-05-21T06:53:15.529Z,14.20
2019-05-21T06:54:20.674Z,14.20
2019-05-21T06:55:26.453Z,14.20
2019-05-21T06:56:31.671Z,14.20
2019-05-21T06:57:37.449Z,14.10
2019-05-21T06:58:42.718Z,14.10
2019-05-21T06:59:48.565Z,14.10
2019-05-21T07:00:53.738Z,14.20
2019-05-21T07:01:59.572Z,14.20
2019-05-21T07:03:04.695Z,14.20
2019-05-21T07:04:10.480Z,14.20
2019-05-21T07:05:17.233Z,14.20
2019-05-21T07:06:22.973Z,14.20
2019-05-21T07:07:28.488Z,14.20
2019-05-21T07:08:35.342Z,14.10
2019-05-21T07:09:40.707Z,14.10
2019-05-21T07:10:46.419Z,14.10
2019-05-21T07:11:51.664Z,14.10
2019-05-21T07:12:57.504Z,14.10
2019-05-21T07:14:02.841Z,14.10
2019-05-21T07:15:09.422Z,14.10
2019-05-21T07:16:14.579Z,14.20
2019-05-21T07:17:20.330Z,14.10
2019-05-21T07:18:25.486Z,14.10
2019-05-21T07:19:31.233Z,14.10
2019-05-21T07:20:36.526Z,14.10
2019-05-21T07:21:42.251Z,14.10
2019-05-21T07:22:47.452Z,14.10
2019-05-21T07:23:53.463Z,14.10
2019-05-21T07:24:58.631Z,14.10
2019-05-21T07:26:04.654Z,14.10
2019-05-21T07:27:09.912Z,14.10
2019-05-21T07:28:15.858Z,14.10
2019-05-21T07:29:21.048Z,14.20
2019-05-21T07:30:26.801Z,14.10
2019-05-21T07:31:32.075Z,14.10
2019-05-21T07:32:37.916Z,14.00
2019-05-21T07:33:43.283Z,14.00
2019-05-21T07:34:48.998Z,14.00
2019-05-21T07:35:54.314Z,14.00
2019-05-21T07:37:00.202Z,14.00
2019-05-21T07:38:05.434Z,14.10
2019-05-21T07:39:11.609Z,14.00
2019-05-21T07:40:17.136Z,14.00
2019-05-21T07:41:22.947Z,14.00
2019-05-21T07:42:28.136Z,14.00
2019-05-21T07:43:34.124Z,14.00
2019-05-21T07:44:39.255Z,14.00
2019-05-21T07:45:45.089Z,14.00
2019-05-21T07:46:50.279Z,14.00
2019-05-21T07:47:55.987Z,14.00
2019-05-21T07:49:01.210Z,14.00
2019-05-21T07:50:07.406Z,14.00
2019-05-21T07:51:13.890Z,13.90
2019-05-21T07:52:19.718Z,13.90
2019-05-21T07:53:25.016Z,14.00
2019-05-21T07:54:30.656Z,13.90
2019-05-21T07:55:36.069Z,13.90
2019-05-21T07:56:41.852Z,14.00
2019-05-21T07:57:47.033Z,14.00
2019-05-21T07:58:52.841Z,14.00
2019-05-21T07:59:58.064Z,14.00
2019-05-21T08:01:03.922Z,14.00
2019-05-21T08:02:09.108Z,14.00
2019-05-21T08:03:15.080Z,14.00
2019-05-21T08:04:20.224Z,14.00
2019-05-21T08:05:27.147Z,14.00
2019-05-21T08:06:32.338Z,14.00
2019-05-21T08:07:38.288Z,14.00
2019-05-21T08:08:43.457Z,14.00
2019-05-21T08:09:49.326Z,14.10
2019-05-21T08:10:54.572Z,14.10
2019-05-21T08:12:00.347Z,14.10
2019-05-21T08:13:05.623Z,14.10
2019-05-21T08:14:12.341Z,14.10
2019-05-21T08:15:17.636Z,14.10
2019-05-21T08:16:23.382Z,14.20
2019-05-21T08:17:28.623Z,14.20
2019-05-21T08:18:34.392Z,14.20
2019-05-21T08:19:39.545Z,14.30
2019-05-21T08:20:45.333Z,14.30
2019-05-21T08:21:50.533Z,14.30
2019-05-21T08:22:56.371Z,14.30
2019-05-21T08:24:01.530Z,14.20
2019-05-21T08:25:07.450Z,14.30
2019-05-21T08:26:13.710Z,14.30
2019-05-21T08:27:19.413Z,14.20
2019-05-21T08:28:24.700Z,14.20
2019-05-21T08:29:30.496Z,14.20
2019-05-21T08:30:35.803Z,14.20
2019-05-21T08:31:41.591Z,14.20
2019-05-21T08:32:46.833Z,14.20
2019-05-21T08:33:52.526Z,14.20
2019-05-21T08:34:57.721Z,14.20
2019-05-21T08:36:03.547Z,14.30
2019-05-21T08:37:09.185Z,14.30
2019-05-21T08:38:15.017Z,14.30
2019-05-21T08:39:28.234Z,14.30
2019-05-21T08:40:27.747Z,14.20
2019-05-21T08:41:33.069Z,14.30
2019-05-21T08:42:38.856Z,14.30
2019-05-21T08:43:44.026Z,14.30
2019-05-21T08:44:49.793Z,14.30
2019-05-21T08:45:54.946Z,14.20
2019-05-21T08:47:00.770Z,14.20
2019-05-21T08:48:06.036Z,14.20
2019-05-21T08:49:11.791Z,14.20
2019-05-21T08:50:17.007Z,14.30
2019-05-21T08:51:22.870Z,14.30
2019-05-21T08:52:28.130Z,14.30
2019-05-21T08:53:33.966Z,14.30
2019-05-21T08:54:55.082Z,14.30
2019-05-21T08:55:58.881Z,14.30
2019-05-21T08:57:03.966Z,14.20
2019-05-21T08:58:10.016Z,14.20
2019-05-21T08:59:15.204Z,14.20
2019-05-21T09:00:22.493Z,14.20
2019-05-21T09:01:27.744Z,14.20
2019-05-21T09:02:33.590Z,14.10
2019-05-21T09:03:38.816Z,14.10
2019-05-21T09:04:46.682Z,14.10
2019-05-21T09:05:51.492Z,14.10
2019-05-21T09:06:57.338Z,14.10
2019-05-21T09:08:02.504Z,14.10
2019-05-21T09:09:08.331Z,14.10
2019-05-21T09:10:13.708Z,14.10
2019-05-21T09:11:19.610Z,14.10
2019-05-21T09:12:24.844Z,14.20
2019-05-21T09:13:30.694Z,14.20
2019-05-21T09:14:36.026Z,14.20
2019-05-21T09:15:41.802Z,14.10
2019-05-21T09:16:48.440Z,14.10
2019-05-21T09:18:00.833Z,14.10
2019-05-21T09:19:06.423Z,14.10
2019-05-21T09:20:15.810Z,14.10
2019-05-21T09:21:22.310Z,14.10
2019-05-21T09:22:28.621Z,14.10
2019-05-21T09:23:34.396Z,14.10
2019-05-21T09:24:41.931Z,14.10
2019-05-21T09:25:49.519Z,14.20
2019-05-21T09:26:54.597Z,14.10
2019-05-21T09:27:59.843Z,14.10
2019-05-21T09:29:06.539Z,14.10
2019-05-21T09:30:12.032Z,14.10
2019-05-21T09:31:17.847Z,14.20
2019-05-21T09:32:23.082Z,14.20
2019-05-21T09:33:33.623Z,14.10
2019-05-21T09:34:48.870Z,14.10
2019-05-21T09:35:46.472Z,14.10
2019-05-21T09:36:51.607Z,14.10
2019-05-21T09:37:59.128Z,14.10
2019-05-21T09:39:05.611Z,14.10
2019-05-21T09:40:13.047Z,14.20
2019-05-21T09:41:18.326Z,14.20
2019-05-21T09:42:27.082Z,14.20
2019-05-21T09:43:32.314Z,14.20
2019-05-21T09:44:38.201Z,14.20
2019-05-21T09:45:44.104Z,14.20
2019-05-21T09:46:53.091Z,14.20
2019-05-21T09:47:59.345Z,14.20
2019-05-21T09:49:05.163Z,14.10
2019-05-21T09:50:11.172Z,14.20
2019-05-21T09:51:20.092Z,14.20
2019-05-21T09:52:23.897Z,14.20
2019-05-21T09:53:30.242Z,14.20
2019-05-21T09:54:35.570Z,14.20
2019-05-21T09:55:41.846Z,14.20
2019-05-21T09:56:48.571Z,14.20
2019-05-21T09:58:15.636Z,14.30
2019-05-21T09:59:45.886Z,14.30
2019-05-21T10:01:16.508Z,14.30
2019-05-21T10:02:27.320Z,14.30
2019-05-21T10:03:33.320Z,14.40
2019-05-21T10:04:38.546Z,14.40
2019-05-21T10:05:44.332Z,14.30
2019-05-21T10:06:49.615Z,14.30
2019-05-21T10:07:55.256Z,14.40
2019-05-21T10:09:00.700Z,14.40
2019-05-21T10:10:08.223Z,14.40
2019-05-21T10:11:13.477Z,14.50
2019-05-21T10:12:19.242Z,14.50
2019-05-21T10:13:24.809Z,14.50
2019-05-21T10:14:33.929Z,14.50
2019-05-21T10:15:37.612Z,14.50
2019-05-21T10:16:43.312Z,14.50
2019-05-21T10:17:48.557Z,14.40
2019-05-21T10:18:54.356Z,14.40
2019-05-21T10:19:59.592Z,14.40
2019-05-21T10:21:05.751Z,14.40
2019-05-21T10:22:11.068Z,14.40
2019-05-21T10:23:16.763Z,14.40
2019-05-21T10:24:22.052Z,14.40
2019-05-21T10:25:27.922Z,14.40
2019-05-21T10:26:33.511Z,14.40
2019-05-21T10:27:39.357Z,14.40
2019-05-21T10:28:44.649Z,14.40
2019-05-21T10:29:50.496Z,14.40
2019-05-21T10:30:55.669Z,14.40
2019-05-21T10:32:01.385Z,14.40
2019-05-21T10:33:06.614Z,14.40
2019-05-21T10:34:13.423Z,14.40
2019-05-21T10:35:18.858Z,14.40
2019-05-21T10:36:24.552Z,14.40
2019-05-21T10:37:29.862Z,14.40
2019-05-21T10:38:35.604Z,14.40
2019-05-21T10:39:40.783Z,14.40
2019-05-21T10:40:46.647Z,14.40
2019-05-21T10:41:51.761Z,14.50
2019-05-21T10:42:57.429Z,14.50
2019-05-21T10:44:02.664Z,14.50
2019-05-21T10:45:09.104Z,14.50
2019-05-21T10:46:14.274Z,14.50
2019-05-21T10:47:19.974Z,14.50
2019-05-21T10:48:25.198Z,14.50
2019-05-21T10:49:30.998Z,14.50
2019-05-21T10:50:36.330Z,14.40
2019-05-21T10:51:42.186Z,14.40
2019-05-21T10:52:47.361Z,14.40
2019-05-21T10:53:53.256Z,14.50
2019-05-21T10:54:58.542Z,14.50
2019-05-21T10:56:04.480Z,14.50
2019-05-21T10:57:09.771Z,14.50
2019-05-21T10:58:15.611Z,14.50
2019-05-21T10:59:20.984Z,14.50
2019-05-21T11:00:27.247Z,14.50
2019-05-21T11:01:43.528Z,14.50
2019-05-21T11:02:56.588Z,14.50
2019-05-21T11:04:39.173Z,14.60
2019-05-21T11:05:46.930Z,14.60
2019-05-21T11:06:52.984Z,14.60
2019-05-21T11:08:20.723Z,14.70
2019-05-21T11:09:09.019Z,14.70
2019-05-21T11:10:14.699Z,14.70
2019-05-21T11:11:21.631Z,14.70
2019-05-21T11:12:26.960Z,14.80
2019-05-21T11:13:33.947Z,14.80
2019-05-21T11:14:39.328Z,14.90
2019-05-21T11:15:45.359Z,14.90
2019-05-21T11:16:50.704Z,14.90
2019-05-21T11:18:09.650Z,14.90
2019-05-21T11:19:03.259Z,14.90
2019-05-21T11:20:09.409Z,14.90
2019-05-21T11:21:14.798Z,14.90
2019-05-21T11:22:20.595Z,14.90
2019-05-21T11:23:25.751Z,14.90
2019-05-21T11:24:31.483Z,15.00
2019-05-21T11:25:36.588Z,15.00
2019-05-21T11:26:43.963Z,15.00
2019-05-21T11:27:49.143Z,15.00
2019-05-21T11:28:56.058Z,15.10
2019-05-21T11:30:01.254Z,15.10
2019-05-21T11:31:07.254Z,15.20
2019-05-21T11:32:12.413Z,15.20
2019-05-21T11:33:18.331Z,15.10
2019-05-21T11:34:23.592Z,15.20
2019-05-21T11:35:29.621Z,15.10
2019-05-21T11:36:35.031Z,15.10
2019-05-21T11:37:47.476Z,15.10
2019-05-21T11:38:56.251Z,15.10
2019-05-21T11:40:01.905Z,15.20
2019-05-21T11:41:07.130Z,15.20
2019-05-21T11:42:12.932Z,15.20
2019-05-21T11:43:18.195Z,15.20
2019-05-21T11:44:24.099Z,15.30
2019-05-21T11:45:32.756Z,15.30
2019-05-21T11:46:37.933Z,15.30
2019-05-21T11:47:43.215Z,15.30
2019-05-21T11:48:49.024Z,15.30
2019-05-21T11:49:54.197Z,15.20
2019-05-21T11:50:59.991Z,15.30
2019-05-21T11:52:05.277Z,15.20
2019-05-21T11:53:11.116Z,15.30
2019-05-21T11:54:16.347Z,15.30
2019-05-21T11:55:22.085Z,15.30
2019-05-21T11:56:27.290Z,15.30
2019-05-21T11:57:33.115Z,15.30
2019-05-21T11:58:39.709Z,15.30
2019-05-21T11:59:45.963Z,15.40
2019-05-21T12:00:51.346Z,15.40
2019-05-21T12:01:57.061Z,15.40
2019-05-21T12:03:02.862Z,15.40
2019-05-21T12:04:08.758Z,15.40
2019-05-21T12:05:14.137Z,15.50
2019-05-21T12:06:19.997Z,15.50
2019-05-21T12:07:25.204Z,15.50
2019-05-21T12:08:30.922Z,15.50
2019-05-21T12:09:35.986Z,15.50
2019-05-21T12:10:41.803Z,15.50
2019-05-21T12:11:47.055Z,15.50
2019-05-21T12:12:52.903Z,15.50
2019-05-21T12:13:58.091Z,15.50
2019-05-21T12:15:04.116Z,15.60
2019-05-21T12:16:09.341Z,15.60
2019-05-21T12:17:15.094Z,15.60
2019-05-21T12:18:20.344Z,15.60
2019-05-21T12:19:26.133Z,15.70
2019-05-21T12:20:36.922Z,15.70
2019-05-21T12:21:38.648Z,15.70
2019-05-21T12:22:43.729Z,15.70
2019-05-21T12:23:49.507Z,15.80
2019-05-21T12:24:54.752Z,15.90
2019-05-21T12:26:00.560Z,16.00
2019-05-21T12:27:05.883Z,16.00
2019-05-21T12:28:11.741Z,16.10
2019-05-21T12:29:16.988Z,16.10
2019-05-21T12:30:23.081Z,16.20
2019-05-21T12:31:28.374Z,16.20
2019-05-21T12:32:34.156Z,16.20
2019-05-21T12:33:39.392Z,16.30
2019-05-21T12:34:45.116Z,16.30
2019-05-21T12:35:50.426Z,16.30
2019-05-21T12:36:56.178Z,16.30
2019-05-21T12:38:01.427Z,16.30
2019-05-21T12:39:14.261Z,16.40
2019-05-21T12:40:16.022Z,16.40
2019-05-21T12:41:21.764Z,16.40
2019-05-21T12:42:27.026Z,16.40
2019-05-21T12:43:32.745Z,16.40
2019-05-21T12:44:37.979Z,16.50
2019-05-21T12:45:43.787Z,16.50
2019-05-21T12:46:52.429Z,16.50
2019-05-21T12:47:58.230Z,16.50
2019-05-21T12:49:04.590Z,16.40
2019-05-21T12:50:10.665Z,16.40
2019-05-21T12:51:15.778Z,16.30
2019-05-21T12:52:21.519Z,16.40
2019-05-21T12:53:26.686Z,16.30
2019-05-21T12:54:32.477Z,16.20
2019-05-21T12:55:37.707Z,16.30
2019-05-21T12:56:44.471Z,16.20
2019-05-21T12:57:49.814Z,16.30
2019-05-21T12:58:55.488Z,16.30
2019-05-21T13:00:00.589Z,16.40
2019-05-21T13:01:06.291Z,16.40
2019-05-21T13:02:11.545Z,16.40
2019-05-21T13:03:17.289Z,16.50
2019-05-21T13:04:22.541Z,16.50
2019-05-21T13:05:28.255Z,16.50
2019-05-21T13:06:33.632Z,16.50
2019-05-21T13:07:40.358Z,16.50
2019-05-21T13:08:45.558Z,16.60
2019-05-21T13:09:51.437Z,16.60
2019-05-21T13:10:56.636Z,16.60
2019-05-21T13:12:02.392Z,16.70
2019-05-21T13:13:08.294Z,16.70
2019-05-21T13:14:18.712Z,16.80
2019-05-21T13:15:22.266Z,16.80
2019-05-21T13:16:28.014Z,16.80
2019-05-21T13:17:33.302Z,16.80
2019-05-21T13:18:39.110Z,16.80
2019-05-21T13:19:44.377Z,16.80
2019-05-21T13:20:50.210Z,16.80
2019-05-21T13:21:55.549Z,16.80
2019-05-21T13:23:01.517Z,16.90
2019-05-21T13:24:06.729Z,16.90
2019-05-21T13:25:13.029Z,16.90
2019-05-21T13:26:21.588Z,16.90
2019-05-21T13:27:27.458Z,16.90
2019-05-21T13:28:32.694Z,16.90
2019-05-21T13:29:38.480Z,16.90
2019-05-21T13:30:43.622Z,16.90
2019-05-21T13:31:49.413Z,16.90
2019-05-21T13:32:54.655Z,16.90
2019-05-21T13:34:00.427Z,16.90
2019-05-21T13:35:06.869Z,16.90
2019-05-21T13:36:12.631Z,16.90
2019-05-21T13:37:17.872Z,16.90
2019-05-21T13:38:23.708Z,17.00
2019-05-21T13:39:28.873Z,17.00
2019-05-21T13:40:34.721Z,17.00
2019-05-21T13:41:43.274Z,17.00
2019-05-21T13:42:49.237Z,17.00
2019-05-21T13:43:54.504Z,17.00
2019-05-21T13:45:00.370Z,17.00
2019-05-21T13:46:05.708Z,17.10
2019-05-21T13:47:11.433Z,17.00
2019-05-21T13:48:16.593Z,17.10
2019-05-21T13:49:22.434Z,17.10
2019-05-21T13:50:30.735Z,17.00
2019-05-21T13:51:37.625Z,17.00
2019-05-21T13:52:42.887Z,17.10
2019-05-21T13:53:48.705Z,17.10
2019-05-21T13:54:53.850Z,17.10
2019-05-21T13:55:59.797Z,17.00
2019-05-21T13:57:07.459Z,17.00
2019-05-21T13:58:13.256Z,17.00
2019-05-21T13:59:18.858Z,17.00
2019-05-21T14:00:28.506Z,17.00
2019-05-21T14:01:40.654Z,17.00
2019-05-21T14:02:41.625Z,17.00
2019-05-21T14:03:46.806Z,17.10
2019-05-21T14:04:52.591Z,17.10
2019-05-21T14:05:58.039Z,17.20
2019-05-21T14:07:03.882Z,17.20
2019-05-21T14:08:09.120Z,17.20
2019-05-21T14:09:14.983Z,17.20
2019-05-21T14:10:21.870Z,17.20
2019-05-21T14:11:28.178Z,17.30
2019-05-21T14:12:33.354Z,17.30
2019-05-21T14:13:39.329Z,17.30
2019-05-21T14:14:44.629Z,17.30
2019-05-21T14:15:50.273Z,17.20